Terminal Aerodrome Forecast
Issued by NWS Grand Forks, ND

Home | Current Version | Previous Version | Text Only | Print | Product List | Glossary Off
Versions: 1 2 3 4 5 6 7 8 9 10 11 12 13 14 15 16

529
FTUS43 KFGF 141120
TAFGFK
TAF
KGFK 141120Z 1412/1512 08005KT P6SM BKN250
     FM142000 02007KT P6SM OVC070
     FM150100 35007KT P6SM BKN060
     FM150200 34006KT P6SM SKC=

USA.gov is the U.S. government's official web portal to all federal, state and local government web resources and services.